sensor_id;sensor_type;location;lat;lon;timestamp;pressure;altitude;pressure_sealevel;temperature;humidity
35704;BME280;21820;51.112;13.762;2023-04-19T00:02:01;100202.38;;;22.75;57.25
35704;BME280;21820;51.112;13.762;2023-04-19T00:04:27;100210.94;;;22.77;56.93
35704;BME280;21820;51.112;13.762;2023-04-19T00:06:52;100195.19;;;22.77;57.53
35704;BME280;21820;51.112;13.762;2023-04-19T00:09:18;100199.47;;;22.78;57.24
35704;BME280;21820;51.112;13.762;2023-04-19T00:11:43;100201.38;;;22.76;57.59
35704;BME280;21820;51.112;13.762;2023-04-19T00:14:08;100187.34;;;22.77;57.74
35704;BME280;21820;51.112;13.762;2023-04-19T00:16:34;100197.81;;;22.77;57.66
35704;BME280;21820;51.112;13.762;2023-04-19T00:18:59;100195.91;;;22.79;57.15
35704;BME280;21820;51.112;13.762;2023-04-19T00:23:51;100190.22;;;22.74;57.58
35704;BME280;21820;51.112;13.762;2023-04-19T00:26:18;100187.63;;;22.83;57.35
35704;BME280;21820;51.112;13.762;2023-04-19T00:28:43;100182.09;;;22.77;57.45
35704;BME280;21820;51.112;13.762;2023-04-19T00:31:08;100183.16;;;22.74;56.98
35704;BME280;21820;51.112;13.762;2023-04-19T00:33:34;100161.03;;;22.58;56.94
35704;BME280;21820;51.112;13.762;2023-04-19T00:35:59;100177.63;;;22.68;57.26
35704;BME280;21820;51.112;13.762;2023-04-19T00:38:25;100179.31;;;22.69;57.34
35704;BME280;21820;51.112;13.762;2023-04-19T00:40:50;100171.44;;;22.69;57.79
35704;BME280;21820;51.112;13.762;2023-04-19T00:43:17;100179.31;;;22.69;57.52
35704;BME280;21820;51.112;13.762;2023-04-19T00:45:42;100175.00;;;22.68;57.54
35704;BME280;21820;51.112;13.762;2023-04-19T00:48:08;100162.44;;;22.62;57.29
35704;BME280;21820;51.112;13.762;2023-04-19T00:50:34;100173.38;;;22.67;58.03
35704;BME280;21820;51.112;13.762;2023-04-19T00:53:00;100174.34;;;22.66;57.87
35704;BME280;21820;51.112;13.762;2023-04-19T00:55:26;100169.09;;;22.66;57.31
35704;BME280;21820;51.112;13.762;2023-04-19T00:57:52;100155.78;;;22.58;57.72
35704;BME280;21820;51.112;13.762;2023-04-19T01:00:18;100171.72;;;22.66;58.06
35704;BME280;21820;51.112;13.762;2023-04-19T01:02:44;100163.84;;;22.66;57.12
35704;BME280;21820;51.112;13.762;2023-04-19T01:05:10;100144.50;;;22.57;58.01
35704;BME280;21820;51.112;13.762;2023-04-19T01:07:35;100166.34;;;22.67;58.11
35704;BME280;21820;51.112;13.762;2023-04-19T01:10:01;100156.66;;;22.68;57.36
35704;BME280;21820;51.112;13.762;2023-04-19T01:12:26;100150.03;;;22.64;57.39
35704;BME280;21820;51.112;13.762;2023-04-19T01:14:51;100159.69;;;22.63;58.00
35704;BME280;21820;51.112;13.762;2023-04-19T01:17:18;100147.69;;;22.61;57.65
35704;BME280;21820;51.112;13.762;2023-04-19T01:19:43;100148.63;;;22.60;57.66
35704;BME280;21820;51.112;13.762;2023-04-19T01:22:09;100146.72;;;22.62;57.84
35704;BME280;21820;51.112;13.762;2023-04-19T01:24:34;100151.69;;;22.65;58.07
35704;BME280;21820;51.112;13.762;2023-04-19T01:27:00;100148.38;;;22.63;58.07
35704;BME280;21820;51.112;13.762;2023-04-19T01:29:26;100139.69;;;22.62;57.70
35704;BME280;21820;51.112;13.762;2023-04-19T01:31:52;100143.41;;;22.60;58.17
35704;BME280;21820;51.112;13.762;2023-04-19T01:34:21;100146.84;;;22.60;58.27
35704;BME280;21820;51.112;13.762;2023-04-19T01:36:49;100146.03;;;22.60;57.94
35704;BME280;21820;51.112;13.762;2023-04-19T01:39:15;100146.72;;;22.62;57.94
35704;BME280;21820;51.112;13.762;2023-04-19T01:41:40;100124.84;;;22.52;57.49
35704;BME280;21820;51.112;13.762;2023-04-19T01:44:06;100142.44;;;22.61;57.85
35704;BME280;21820;51.112;13.762;2023-04-19T01:46:31;100139.69;;;22.62;57.84
35704;BME280;21820;51.112;13.762;2023-04-19T01:48:57;100138.88;;;22.62;58.01
35704;BME280;21820;51.112;13.762;2023-04-19T01:51:22;100127.63;;;22.50;57.57
35704;BME280;21820;51.112;13.762;2023-04-19T01:53:47;100138.16;;;22.60;57.94
35704;BME280;21820;51.112;13.762;2023-04-19T01:56:18;100138.44;;;22.57;57.85
35704;BME280;21820;51.112;13.762;2023-04-19T01:58:43;100123.91;;;22.53;57.68
35704;BME280;21820;51.112;13.762;2023-04-19T02:01:09;100139.00;;;22.60;57.42
35704;BME280;21820;51.112;13.762;2023-04-19T02:03:37;100132.06;;;22.59;58.02
35704;BME280;21820;51.112;13.762;2023-04-19T02:06:02;100127.69;;;22.60;57.83
35704;BME280;21820;51.112;13.762;2023-04-19T02:08:28;100132.06;;;22.59;56.66
35704;BME280;21820;51.112;13.762;2023-04-19T02:10:53;100132.91;;;22.60;57.69
35704;BME280;21820;51.112;13.762;2023-04-19T02:13:18;100139.13;;;22.59;57.45
35704;BME280;21820;51.112;13.762;2023-04-19T02:15:43;100135.66;;;22.58;57.74
35704;BME280;21820;51.112;13.762;2023-04-19T02:18:09;100135.66;;;22.58;58.25
35704;BME280;21820;51.112;13.762;2023-04-19T02:20:35;100129.59;;;22.58;57.60
35704;BME280;21820;51.112;13.762;2023-04-19T02:23:01;100109.69;;;22.46;57.88
35704;BME280;21820;51.112;13.762;2023-04-19T02:25:26;100126.97;;;22.58;58.08
35704;BME280;21820;51.112;13.762;2023-04-19T02:27:51;100114.72;;;22.58;57.42
35704;BME280;21820;51.112;13.762;2023-04-19T02:30:18;100126.03;;;22.59;57.59
35704;BME280;21820;51.112;13.762;2023-04-19T02:32:43;100131.41;;;22.57;57.93
35704;BME280;21820;51.112;13.762;2023-04-19T02:35:08;100130.28;;;22.60;57.09
35704;BME280;21820;51.112;13.762;2023-04-19T02:37:34;100128.66;;;22.59;58.16
35704;BME280;21820;51.112;13.762;2023-04-19T02:39:59;100122.69;;;22.57;57.33
35704;BME280;21820;51.112;13.762;2023-04-19T02:42:25;100121.88;;;22.56;58.19
35704;BME280;21820;51.112;13.762;2023-04-19T02:44:50;100120.34;;;22.54;58.24
35704;BME280;21820;51.112;13.762;2023-04-19T02:47:15;100101.81;;;22.46;57.88
35704;BME280;21820;51.112;13.762;2023-04-19T02:49:40;100114.38;;;22.52;58.04
35704;BME280;21820;51.112;13.762;2023-04-19T02:52:07;100113.19;;;22.56;57.72
35704;BME280;21820;51.112;13.762;2023-04-19T02:54:33;100119.25;;;22.56;58.05
35704;BME280;21820;51.112;13.762;2023-04-19T02:56:58;100105.56;;;22.53;58.01
35704;BME280;21820;51.112;13.762;2023-04-19T02:59:25;100106.41;;;22.53;57.98
35704;BME280;21820;51.112;13.762;2023-04-19T03:01:50;100115.13;;;22.54;57.87
35704;BME280;21820;51.112;13.762;2023-04-19T03:04:16;100097.81;;;22.51;58.34
35704;BME280;21820;51.112;13.762;2023-04-19T03:06:41;100079.31;;;22.43;58.07
35704;BME280;21820;51.112;13.762;2023-04-19T03:09:08;100077.81;;;22.41;57.53
35704;BME280;21820;51.112;13.762;2023-04-19T03:11:33;100101.19;;;22.53;57.76
35704;BME280;21820;51.112;13.762;2023-04-19T03:13:59;100083.47;;;22.46;57.99
35704;BME280;21820;51.112;13.762;2023-04-19T03:16:25;100087.94;;;22.55;57.88
35704;BME280;21820;51.112;13.762;2023-04-19T03:18:50;100089.84;;;22.53;57.96
35704;BME280;21820;51.112;13.762;2023-04-19T03:21:15;100084.50;;;22.54;57.70
35704;BME280;21820;51.112;13.762;2023-04-19T03:23:41;100082.94;;;22.52;58.09
35704;BME280;21820;51.112;13.762;2023-04-19T03:26:06;100079.38;;;22.53;57.22
35704;BME280;21820;51.112;13.762;2023-04-19T03:28:32;100083.66;;;22.54;57.60
35704;BME280;21820;51.112;13.762;2023-04-19T03:30:57;100066.50;;;22.50;57.87
35704;BME280;21820;51.112;13.762;2023-04-19T03:33:22;100065.56;;;22.51;58.12
35704;BME280;21820;51.112;13.762;2023-04-19T03:35:48;100076.28;;;22.48;57.76
35704;BME280;21820;51.112;13.762;2023-04-19T03:38:13;100063.31;;;22.37;58.04
35704;BME280;21820;51.112;13.762;2023-04-19T03:40:38;100061.25;;;22.01;57.15
35704;BME280;21820;51.112;13.762;2023-04-19T03:43:04;100069.03;;;21.70;57.64
35704;BME280;21820;51.112;13.762;2023-04-19T03:45:29;100070.94;;;21.68;57.73
35704;BME280;21820;51.112;13.762;2023-04-19T03:47:55;100061.88;;;21.72;57.91
35704;BME280;21820;51.112;13.762;2023-04-19T03:50:20;100057.22;;;21.76;57.67
35704;BME280;21820;51.112;13.762;2023-04-19T03:52:45;100042.59;;;21.73;57.83
35704;BME280;21820;51.112;13.762;2023-04-19T03:55:11;100062.28;;;21.88;57.68
35704;BME280;21820;51.112;13.762;2023-04-19T03:57:36;100041.59;;;21.85;57.14
35704;BME280;21820;51.112;13.762;2023-04-19T04:00:03;100051.16;;;21.96;57.26
35704;BME280;21820;51.112;13.762;2023-04-19T04:02:31;100064.28;;;22.06;56.62
35704;BME280;21820;51.112;13.762;2023-04-19T04:04:57;100062.66;;;22.05;57.30
35704;BME280;21820;51.112;13.762;2023-04-19T04:07:22;100041.25;;;22.00;56.57
35704;BME280;21820;51.112;13.762;2023-04-19T04:09:49;100062.69;;;22.14;56.43
35704;BME280;21820;51.112;13.762;2023-04-19T04:12:14;100058.00;;;22.18;56.96
35704;BME280;21820;51.112;13.762;2023-04-19T04:14:40;100051.38;;;22.14;56.34
35704;BME280;21820;51.112;13.762;2023-04-19T04:17:05;100064.13;;;22.28;56.13
35704;BME280;21820;51.112;13.762;2023-04-19T04:19:31;100056.63;;;22.23;56.27
35704;BME280;21820;51.112;13.762;2023-04-19T04:21:56;100078.50;;;22.43;55.93
35704;BME280;21820;51.112;13.762;2023-04-19T04:24:21;100070.38;;;22.46;55.82
35704;BME280;21820;51.112;13.762;2023-04-19T04:26:47;100069.13;;;22.50;56.01
35704;BME280;21820;51.112;13.762;2023-04-19T04:29:14;100071.28;;;22.56;55.63
35704;BME280;21820;51.112;13.762;2023-04-19T04:31:39;100074.56;;;22.58;55.70
35704;BME280;21820;51.112;13.762;2023-04-19T04:34:05;100075.56;;;22.66;55.79
35704;BME280;21820;51.112;13.762;2023-04-19T04:36:30;100054.84;;;22.54;55.99
35704;BME280;21820;51.112;13.762;2023-04-19T04:38:56;100058.69;;;22.59;55.61
35704;BME280;21820;51.112;13.762;2023-04-19T04:41:21;100049.41;;;22.46;55.81
35704;BME280;21820;51.112;13.762;2023-04-19T04:43:47;100068.19;;;22.51;55.83
35704;BME280;21820;51.112;13.762;2023-04-19T04:46:16;100058.09;;;22.46;55.83
35704;BME280;21820;51.112;13.762;2023-04-19T04:48:41;100059.59;;;22.39;55.96
35704;BME280;21820;51.112;13.762;2023-04-19T04:51:06;100055.28;;;22.29;57.04
35704;BME280;21820;51.112;13.762;2023-04-19T04:53:32;100050.59;;;22.23;56.46
35704;BME280;21820;51.112;13.762;2023-04-19T04:55:57;100057.31;;;22.16;57.38
35704;BME280;21820;51.112;13.762;2023-04-19T04:58:22;100053.28;;;22.12;57.28
35704;BME280;21820;51.112;13.762;2023-04-19T05:00:48;100060.56;;;22.08;57.34
35704;BME280;21820;51.112;13.762;2023-04-19T05:03:13;100061.69;;;22.06;57.71
35704;BME280;21820;51.112;13.762;2023-04-19T05:05:39;100062.78;;;22.03;58.54
35704;BME280;21820;51.112;13.762;2023-04-19T05:08:04;100063.31;;;22.07;57.84
35704;BME280;21820;51.112;13.762;2023-04-19T05:10:30;100056.56;;;22.04;57.27
35704;BME280;21820;51.112;13.762;2023-04-19T05:12:55;100058.47;;;22.02;56.74
35704;BME280;21820;51.112;13.762;2023-04-19T05:15:21;100066.22;;;22.04;56.88
35704;BME280;21820;51.112;13.762;2023-04-19T05:17:46;100059.75;;;22.08;57.67
35704;BME280;21820;51.112;13.762;2023-04-19T05:20:12;100060.19;;;22.13;57.09
35704;BME280;21820;51.112;13.762;2023-04-19T05:22:38;100066.81;;;22.17;57.32
35704;BME280;21820;51.112;13.762;2023-04-19T05:25:04;100067.13;;;22.23;57.33
35704;BME280;21820;51.112;13.762;2023-04-19T05:27:30;100067.94;;;22.24;56.98
35704;BME280;21820;51.112;13.762;2023-04-19T05:29:55;100067.13;;;22.23;56.62
35704;BME280;21820;51.112;13.762;2023-04-19T05:32:20;100051.09;;;22.17;56.99
35704;BME280;21820;51.112;13.762;2023-04-19T05:34:46;100064.47;;;22.14;57.00
35704;BME280;21820;51.112;13.762;2023-04-19T05:37:11;100062.13;;;22.11;57.72
35704;BME280;21820;51.112;13.762;2023-04-19T05:39:37;100053.81;;;22.06;57.60
35704;BME280;21820;51.112;13.762;2023-04-19T05:42:02;100064.03;;;22.09;57.24
35704;BME280;21820;51.112;13.762;2023-04-19T05:44:27;100058.34;;;22.04;58.13
35704;BME280;21820;51.112;13.762;2023-04-19T05:46:53;100061.53;;;22.07;56.32
35704;BME280;21820;51.112;13.762;2023-04-19T05:49:18;100042.03;;;21.90;56.39
35704;BME280;21820;51.112;13.762;2023-04-19T05:51:43;100062.22;;;22.00;56.13
35704;BME280;21820;51.112;13.762;2023-04-19T05:54:09;100058.22;;;22.05;56.52
35704;BME280;21820;51.112;13.762;2023-04-19T05:56:37;100060.47;;;22.10;56.35
35704;BME280;21820;51.112;13.762;2023-04-19T05:59:02;100053.03;;;22.15;56.41
35704;BME280;21820;51.112;13.762;2023-04-19T06:01:28;100055.81;;;22.23;56.51
35704;BME280;21820;51.112;13.762;2023-04-19T06:03:53;100058.31;;;22.24;55.86
35704;BME280;21820;51.112;13.762;2023-04-19T06:06:20;100070.69;;;22.22;56.50
35704;BME280;21820;51.112;13.762;2023-04-19T06:08:46;100064.78;;;22.30;56.10
35704;BME280;21820;51.112;13.762;2023-04-19T06:11:11;100064.13;;;22.28;56.18
35704;BME280;21820;51.112;13.762;2023-04-19T06:13:36;100052.94;;;22.26;55.91
35704;BME280;21820;51.112;13.762;2023-04-19T06:16:02;100047.97;;;22.23;56.40
35704;BME280;21820;51.112;13.762;2023-04-19T06:18:28;100042.28;;;22.18;57.05
35704;BME280;21820;51.112;13.762;2023-04-19T06:20:53;100057.19;;;22.17;56.94
35704;BME280;21820;51.112;13.762;2023-04-19T06:23:19;100039.81;;;22.16;57.01
35704;BME280;21820;51.112;13.762;2023-04-19T06:25:44;100043.25;;;22.17;56.82
35704;BME280;21820;51.112;13.762;2023-04-19T06:28:10;100046.25;;;22.12;57.31
35704;BME280;21820;51.112;13.762;2023-04-19T06:30:35;100057.44;;;22.14;57.87
35704;BME280;21820;51.112;13.762;2023-04-19T06:33:00;100066.13;;;22.15;58.09
35704;BME280;21820;51.112;13.762;2023-04-19T06:35:26;100061.00;;;22.13;57.59
35704;BME280;21820;51.112;13.762;2023-04-19T06:37:51;100068.19;;;22.11;57.58
35704;BME280;21820;51.112;13.762;2023-04-19T06:40:17;100067.09;;;22.14;57.59
35704;BME280;21820;51.112;13.762;2023-04-19T06:42:42;100063.25;;;22.18;56.93
35704;BME280;21820;51.112;13.762;2023-04-19T06:45:08;100073.47;;;22.21;57.10
35704;BME280;21820;51.112;13.762;2023-04-19T06:47:33;100069.88;;;22.22;56.42
35704;BME280;21820;51.112;13.762;2023-04-19T06:49:59;100059.97;;;22.35;56.47
35704;BME280;21820;51.112;13.762;2023-04-19T06:52:24;100063.56;;;22.34;56.30
35704;BME280;21820;51.112;13.762;2023-04-19T06:54:50;100060.53;;;22.29;56.41
35704;BME280;21820;51.112;13.762;2023-04-19T06:57:16;100064.63;;;22.22;56.75
35704;BME280;21820;51.112;13.762;2023-04-19T06:59:42;100044.78;;;22.19;56.47
35704;BME280;21820;51.112;13.762;2023-04-19T07:02:08;100034.72;;;22.15;57.52
35704;BME280;21820;51.112;13.762;2023-04-19T07:04:33;100031.97;;;22.16;57.58
35704;BME280;21820;51.112;13.762;2023-04-19T07:06:59;100026.53;;;22.08;57.39
35704;BME280;21820;51.112;13.762;2023-04-19T07:09:25;100040.88;;;22.14;57.61
35704;BME280;21820;51.112;13.762;2023-04-19T07:11:50;100034.72;;;22.15;57.20
35704;BME280;21820;51.112;13.762;2023-04-19T07:14:16;100037.56;;;22.12;58.20
35704;BME280;21820;51.112;13.762;2023-04-19T07:16:44;100031.41;;;22.13;57.60
35704;BME280;21820;51.112;13.762;2023-04-19T07:19:10;100022.97;;;22.09;58.68
35704;BME280;21820;51.112;13.762;2023-04-19T07:21:35;100029.03;;;22.10;57.78
35704;BME280;21820;51.112;13.762;2023-04-19T07:24:02;100023.81;;;22.10;57.60
35704;BME280;21820;51.112;13.762;2023-04-19T07:26:27;100013.34;;;22.10;57.72
35704;BME280;21820;51.112;13.762;2023-04-19T07:28:53;100019.38;;;22.10;57.38
35704;BME280;21820;51.112;13.762;2023-04-19T07:31:18;100023.25;;;22.16;57.20
35704;BME280;21820;51.112;13.762;2023-04-19T07:33:44;100017.47;;;22.22;56.75
35704;BME280;21820;51.112;13.762;2023-04-19T07:36:10;99998.72;;;22.17;56.29
35704;BME280;21820;51.112;13.762;2023-04-19T07:38:35;100005.78;;;22.26;57.06
35704;BME280;21820;51.112;13.762;2023-04-19T07:41:01;100006.06;;;22.23;57.03
35704;BME280;21820;51.112;13.762;2023-04-19T07:43:29;100004.78;;;22.17;56.63
35704;BME280;21820;51.112;13.762;2023-04-19T07:45:54;100003.97;;;22.17;56.91
35704;BME280;21820;51.112;13.762;2023-04-19T07:48:20;100006.56;;;22.17;57.13
35704;BME280;21820;51.112;13.762;2023-04-19T07:50:45;100006.84;;;22.14;57.42
35704;BME280;21820;51.112;13.762;2023-04-19T07:53:11;99993.75;;;22.14;57.09
35704;BME280;21820;51.112;13.762;2023-04-19T07:55:36;99995.66;;;22.12;59.09
35704;BME280;21820;51.112;13.762;2023-04-19T07:58:01;100007.81;;;22.13;57.53
35704;BME280;21820;51.112;13.762;2023-04-19T08:00:27;100000.09;;;22.11;58.64
35704;BME280;21820;51.112;13.762;2023-04-19T08:02:54;99990.72;;;22.09;58.23
35704;BME280;21820;51.112;13.762;2023-04-19T08:05:21;100003.09;;;22.07;57.91
35704;BME280;21820;51.112;13.762;2023-04-19T08:07:46;99994.56;;;22.05;58.35
35704;BME280;21820;51.112;13.762;2023-04-19T08:10:12;99990.41;;;22.02;58.83
35704;BME280;21820;51.112;13.762;2023-04-19T08:12:38;99993.16;;;22.01;57.83
35704;BME280;21820;51.112;13.762;2023-04-19T08:15:06;99991.75;;;21.96;58.33
35704;BME280;21820;51.112;13.762;2023-04-19T08:17:32;99972.16;;;21.81;58.03
35704;BME280;21820;51.112;13.762;2023-04-19T08:19:57;99990.38;;;21.92;57.41
35704;BME280;21820;51.112;13.762;2023-04-19T08:22:23;99988.72;;;21.91;57.29
35704;BME280;21820;51.112;13.762;2023-04-19T08:24:49;99982.41;;;21.94;57.72
35704;BME280;21820;51.112;13.762;2023-04-19T08:27:18;99989.03;;;21.98;57.27
35704;BME280;21820;51.112;13.762;2023-04-19T08:29:44;99992.91;;;22.04;57.23
35704;BME280;21820;51.112;13.762;2023-04-19T08:32:13;99989.34;;;22.14;57.00
35704;BME280;21820;51.112;13.762;2023-04-19T08:34:38;99986.47;;;22.17;57.55
35704;BME280;21820;51.112;13.762;2023-04-19T08:37:05;99983.00;;;22.17;57.40
35704;BME280;21820;51.112;13.762;2023-04-19T08:39:32;99983.28;;;22.14;57.08
35704;BME280;21820;51.112;13.762;2023-04-19T08:42:03;99977.34;;;22.12;56.99
35704;BME280;21820;51.112;13.762;2023-04-19T08:44:30;99980.22;;;22.09;57.39
35704;BME280;21820;51.112;13.762;2023-04-19T08:46:59;99975.00;;;22.09;57.97
35704;BME280;21820;51.112;13.762;2023-04-19T08:49:26;99975.13;;;22.07;57.92
35704;BME280;21820;51.112;13.762;2023-04-19T08:51:53;99974.16;;;22.08;58.94
35704;BME280;21820;51.112;13.762;2023-04-19T08:54:20;99976.66;;;22.10;57.95
35704;BME280;21820;51.112;13.762;2023-04-19T08:56:46;99966.44;;;22.07;57.42
35704;BME280;21820;51.112;13.762;2023-04-19T08:59:11;99963.16;;;22.05;57.60
35704;BME280;21820;51.112;13.762;2023-04-19T09:01:38;99965.34;;;22.00;57.96
35704;BME280;21820;51.112;13.762;2023-04-19T09:04:04;99958.06;;;22.03;57.86
35704;BME280;21820;51.112;13.762;2023-04-19T09:06:34;99953.31;;;21.97;58.28
35704;BME280;21820;51.112;13.762;2023-04-19T09:11:42;99949.88;;;21.96;58.64
35704;BME280;21820;51.112;13.762;2023-04-19T09:14:12;99951.53;;;21.98;58.69
35704;BME280;21820;51.112;13.762;2023-04-19T09:16:38;99943.97;;;21.94;58.06
35704;BME280;21820;51.112;13.762;2023-04-19T09:19:04;99931.66;;;21.85;58.34
35704;BME280;21820;51.112;13.762;2023-04-19T09:21:30;99940.78;;;21.91;58.33
35704;BME280;21820;51.112;13.762;2023-04-19T09:23:56;99941.84;;;21.88;57.66
35704;BME280;21820;51.112;13.762;2023-04-19T09:26:22;99932.50;;;21.86;58.10
35704;BME280;21820;51.112;13.762;2023-04-19T09:29:01;99934.41;;;21.84;57.74
35704;BME280;21820;51.112;13.762;2023-04-19T09:31:28;99936.91;;;21.95;57.71
35704;BME280;21820;51.112;13.762;2023-04-19T09:33:54;99924.00;;;22.03;57.19
35704;BME280;21820;51.112;13.762;2023-04-19T09:36:28;99926.78;;;22.11;57.61
35704;BME280;21820;51.112;13.762;2023-04-19T09:38:55;99922.06;;;22.05;57.39
35704;BME280;21820;51.112;13.762;2023-04-19T09:41:20;99925.38;;;22.07;57.57
35704;BME280;21820;51.112;13.762;2023-04-19T09:43:45;99919.59;;;22.04;57.68
35704;BME280;21820;51.112;13.762;2023-04-19T09:46:34;99922.34;;;22.02;58.41
35704;BME280;21820;51.112;13.762;2023-04-19T09:51:43;99920.56;;;22.03;58.53
35704;BME280;21820;51.112;13.762;2023-04-19T09:54:10;99926.63;;;22.03;57.96
35704;BME280;21820;51.112;13.762;2023-04-19T09:56:36;99918.63;;;22.05;57.52
35704;BME280;21820;51.112;13.762;2023-04-19T09:59:03;99921.50;;;22.02;57.19
35704;BME280;21820;51.112;13.762;2023-04-19T10:01:34;99899.72;;;21.91;59.50
35704;BME280;21820;51.112;13.762;2023-04-19T10:04:03;99909.94;;;21.94;58.55
35704;BME280;21820;51.112;13.762;2023-04-19T10:06:29;99883.19;;;21.81;57.88
35704;BME280;21820;51.112;13.762;2023-04-19T10:08:56;99904.69;;;21.94;59.04
35704;BME280;21820;51.112;13.762;2023-04-19T10:11:25;99893.25;;;21.95;58.14
35704;BME280;21820;51.112;13.762;2023-04-19T10:13:56;99896.41;;;21.89;58.44
35704;BME280;21820;51.112;13.762;2023-04-19T10:16:23;99892.13;;;21.88;58.61
35704;BME280;21820;51.112;13.762;2023-04-19T10:18:49;99903.56;;;21.87;58.08
35704;BME280;21820;51.112;13.762;2023-04-19T10:21:17;99893.94;;;21.88;58.55
35704;BME280;21820;51.112;13.762;2023-04-19T10:23:43;99898.59;;;21.84;57.84
35704;BME280;21820;51.112;13.762;2023-04-19T10:26:08;99883.19;;;21.81;58.34
35704;BME280;21820;51.112;13.762;2023-04-19T10:28:34;99892.25;;;21.87;57.92
35704;BME280;21820;51.112;13.762;2023-04-19T10:31:03;99871.03;;;21.80;57.92
35704;BME280;21820;51.112;13.762;2023-04-19T10:33:33;99881.56;;;22.00;57.54
35704;BME280;21820;51.112;13.762;2023-04-19T10:35:59;99891.22;;;22.09;57.52
35704;BME280;21820;51.112;13.762;2023-04-19T10:38:45;99876.59;;;22.06;57.25
35704;BME280;21820;51.112;13.762;2023-04-19T10:41:12;99872.72;;;22.01;57.64
35704;BME280;21820;51.112;13.762;2023-04-19T10:43:39;99849.56;;;21.86;59.73
35704;BME280;21820;51.112;13.762;2023-04-19T10:49:01;99877.00;;;22.02;59.03
35704;BME280;21820;51.112;13.762;2023-04-19T10:51:28;99876.31;;;22.00;58.29
35704;BME280;21820;51.112;13.762;2023-04-19T10:53:54;99880.59;;;22.01;59.15
35704;BME280;21820;51.112;13.762;2023-04-19T11:01:48;99866.09;;;21.96;58.62
35704;BME280;21820;51.112;13.762;2023-04-19T11:12:05;99840.75;;;21.97;60.01
35704;BME280;21820;51.112;13.762;2023-04-19T11:14:35;99853.97;;;21.95;58.60
35704;BME280;21820;51.112;13.762;2023-04-19T11:17:03;99857.72;;;21.93;58.47
35704;BME280;21820;51.112;13.762;2023-04-19T11:19:37;99842.25;;;21.90;58.38
35704;BME280;21820;51.112;13.762;2023-04-19T11:22:03;99832.75;;;21.79;58.55
35704;BME280;21820;51.112;13.762;2023-04-19T11:24:28;99838.78;;;21.80;58.29
35704;BME280;21820;51.112;13.762;2023-04-19T11:26:55;99841.03;;;21.84;57.66
35704;BME280;21820;51.112;13.762;2023-04-19T11:29:21;99830.00;;;21.81;58.03
35704;BME280;21820;51.112;13.762;2023-04-19T11:31:46;99843.25;;;21.98;57.77
35704;BME280;21820;51.112;13.762;2023-04-19T11:34:12;99828.38;;;22.09;57.15
35704;BME280;21820;51.112;13.762;2023-04-19T11:36:48;99833.06;;;22.15;57.25
35704;BME280;21820;51.112;13.762;2023-04-19T11:39:13;99824.25;;;22.16;57.25
35704;BME280;21820;51.112;13.762;2023-04-19T11:41:38;99799.44;;;22.01;57.56
35704;BME280;21820;51.112;13.762;2023-04-19T11:44:15;99825.75;;;22.09;58.07
35704;BME280;21820;51.112;13.762;2023-04-19T11:46:41;99830.28;;;22.07;57.42
35704;BME280;21820;51.112;13.762;2023-04-19T11:49:06;99832.25;;;22.05;57.59
35704;BME280;21820;51.112;13.762;2023-04-19T11:51:32;99829.63;;;22.05;57.76
35704;BME280;21820;51.112;13.762;2023-04-19T11:53:57;99835.53;;;22.07;58.13
35704;BME280;21820;51.112;13.762;2023-04-19T11:56:22;99836.50;;;22.06;58.09
35704;BME280;21820;51.112;13.762;2023-04-19T11:58:48;99830.84;;;22.01;58.10
35704;BME280;21820;51.112;13.762;2023-04-19T12:01:20;99841.31;;;22.01;58.63
35704;BME280;21820;51.112;13.762;2023-04-19T12:03:51;99820.66;;;21.98;58.33
35704;BME280;21820;51.112;13.762;2023-04-19T12:06:28;99825.88;;;21.98;59.71
35704;BME280;21820;51.112;13.762;2023-04-19T12:08:56;99827.81;;;21.95;58.52
35704;BME280;21820;51.112;13.762;2023-04-19T12:11:23;99824.50;;;21.93;58.56
35704;BME280;21820;51.112;13.762;2023-04-19T12:14:09;99817.06;;;21.89;58.23
35704;BME280;21820;51.112;13.762;2023-04-19T12:16:35;99821.44;;;21.88;57.93
35704;BME280;21820;51.112;13.762;2023-04-19T12:19:10;99817.06;;;21.89;57.90
35704;BME280;21820;51.112;13.762;2023-04-19T12:21:39;99814.56;;;21.87;58.13
35704;BME280;21820;51.112;13.762;2023-04-19T12:24:04;99816.78;;;21.92;57.89
35704;BME280;21820;51.112;13.762;2023-04-19T12:26:30;99817.06;;;21.98;57.50
35704;BME280;21820;51.112;13.762;2023-04-19T12:28:56;99818.16;;;22.06;57.88
35704;BME280;21820;51.112;13.762;2023-04-19T12:31:22;99817.06;;;22.08;57.96
35704;BME280;21820;51.112;13.762;2023-04-19T12:33:48;99808.81;;;22.13;57.65
35704;BME280;21820;51.112;13.762;2023-04-19T12:36:13;99797.78;;;22.09;57.83
35704;BME280;21820;51.112;13.762;2023-04-19T12:38:39;99795.31;;;22.08;57.47
35704;BME280;21820;51.112;13.762;2023-04-19T12:41:04;99797.22;;;22.06;58.30
35704;BME280;21820;51.112;13.762;2023-04-19T12:43:30;99796.38;;;22.05;58.11
35704;BME280;21820;51.112;13.762;2023-04-19T12:45:56;99793.09;;;22.03;57.94
35704;BME280;21820;51.112;13.762;2023-04-19T12:48:25;99794.19;;;22.01;59.28
35704;BME280;21820;51.112;13.762;2023-04-19T12:50:51;99794.19;;;22.01;57.91
35704;BME280;21820;51.112;13.762;2023-04-19T12:53:17;99785.34;;;22.02;59.16
35704;BME280;21820;51.112;13.762;2023-04-19T12:55:42;99782.06;;;22.00;58.37
35704;BME280;21820;51.112;13.762;2023-04-19T12:58:12;99787.31;;;22.00;59.00
35704;BME280;21820;51.112;13.762;2023-04-19T13:00:38;99773.53;;;21.98;57.94
35704;BME280;21820;51.112;13.762;2023-04-19T13:03:03;99775.44;;;21.95;60.09